Time;durP1;ratioP1;P1;durP2;ratioP2;P2;SDS_P1;SDS_P2;PMS_P1;PMS_P2;Temp;Humidity;BMP_temperature;BMP_pressure;BME280_temperature;BME280_humidity;BME280_pressure;Samples;Min_cycle;Max_cycle;Signal;HPM_P1;HPM_P2
2022/09/23 00:01:01;;;;;;;1.77;1.30;;;21.60;44.40;;;;;;5050051;28;20079;-10
2022/09/23 00:03:30;;;;;;;1.17;1.02;;;21.50;44.40;;;;;;5050332;28;20056;-10
2022/09/23 00:05:58;;;;;;;1.10;1.00;;;21.50;44.40;;;;;;5049983;28;20059;-10
2022/09/23 00:08:25;;;;;;;0.98;0.88;;;21.50;44.40;;;;;;5049900;28;20076;-10
2022/09/23 00:10:53;;;;;;;1.10;1.00;;;21.60;44.50;;;;;;5049836;28;20465;-10
2022/09/23 00:13:18;;;;;;;2.28;1.10;;;21.60;44.50;;;;;;5049431;28;20521;-10
2022/09/23 00:15:45;;;;;;;1.23;1.13;;;21.50;44.50;;;;;;5050201;28;20063;-10
2022/09/23 00:18:11;;;;;;;2.00;1.10;;;21.60;44.50;;;;;;5049899;28;20065;-10
2022/09/23 00:20:37;;;;;;;1.30;1.20;;;21.60;44.50;;;;;;5049505;28;20049;-10
2022/09/23 00:23:03;;;;;;;1.40;1.13;;;21.50;44.40;;;;;;5049885;28;20503;-10
2022/09/23 00:25:28;;;;;;;1.20;0.95;;;21.50;44.40;;;;;;5049964;28;20069;-10
2022/09/23 00:27:55;;;;;;;1.25;1.10;;;21.50;44.50;;;;;;5049482;28;20056;-10
2022/09/23 00:30:22;;;;;;;1.35;1.20;;;21.50;44.50;;;;;;5049543;28;20049;-10
2022/09/23 00:32:48;;;;;;;1.77;1.08;;;21.60;44.50;;;;;;5049907;28;20045;-10
2022/09/23 00:35:14;;;;;;;1.35;1.13;;;21.50;44.50;;;;;;5049478;28;20064;-10
2022/09/23 00:37:39;;;;;;;0.80;0.80;;;21.50;44.40;;;;;;5049726;28;20109;-10
2022/09/23 00:40:07;;;;;;;1.40;1.30;;;21.60;44.50;;;;;;5049868;28;20094;-10
2022/09/23 00:42:33;;;;;;;1.10;1.00;;;21.50;44.50;;;;;;5049456;28;20502;-10
2022/09/23 00:44:59;;;;;;;1.08;0.98;;;21.50;44.50;;;;;;5049551;28;20060;-10
2022/09/23 00:47:56;;;;;;;1.30;1.20;;;21.50;44.50;;;;;;5049565;28;20133;-10
2022/09/23 00:50:25;;;;;;;1.23;1.13;;;21.50;44.50;;;;;;5050653;28;20394;-10
2022/09/23 00:52:55;;;;;;;1.52;1.20;;;21.50;44.50;;;;;;5048025;28;20421;-10
2022/09/23 00:55:53;;;;;;;1.20;1.05;;;21.50;44.50;;;;;;5049573;28;20057;-10
2022/09/23 00:58:25;;;;;;;1.15;0.98;;;21.50;44.50;;;;;;5048980;28;20065;-10
2022/09/23 01:00:52;;;;;;;1.30;1.20;;;21.50;44.60;;;;;;5049216;28;20047;-10
2022/09/23 01:03:18;;;;;;;1.05;0.95;;;21.50;44.50;;;;;;5049620;28;20171;-10
2022/09/23 01:05:45;;;;;;;1.30;1.20;;;21.50;44.50;;;;;;5049041;28;20057;-10
2022/09/23 01:08:12;;;;;;;1.30;1.20;;;21.50;44.50;;;;;;5049315;28;20106;-10
2022/09/23 01:11:07;;;;;;;1.10;1.00;;;21.50;44.60;;;;;;5048986;28;20064;-10
2022/09/23 01:13:51;;;;;;;1.30;1.20;;;21.40;44.50;;;;;;5049332;28;20056;-10
2022/09/23 01:16:55;;;;;;;1.10;1.00;;;21.50;44.60;;;;;;5048960;28;20468;-10
2022/09/23 01:19:55;;;;;;;1.27;1.17;;;21.50;44.50;;;;;;5058922;28;20175;-10
2022/09/23 01:22:40;;;;;;;1.73;0.80;;;21.50;44.50;;;;;;5049064;28;20068;-10
2022/09/23 01:25:31;;;;;;;1.35;1.15;;;21.50;44.50;;;;;;5050162;28;20064;-10
2022/09/23 01:28:03;;;;;;;1.63;1.00;;;21.50;44.60;;;;;;5052068;28;20474;-10
2022/09/23 01:30:44;;;;;;;0.77;0.77;;;21.50;44.50;;;;;;5051918;28;20095;-10
2022/09/23 01:33:34;;;;;;;1.23;1.10;;;21.50;44.50;;;;;;5052215;28;20060;-10
2022/09/23 01:36:34;;;;;;;1.33;1.20;;;21.50;44.50;;;;;;5051909;28;20113;-10
2022/09/23 01:39:26;;;;;;;1.23;1.13;;;21.50;44.60;;;;;;5051557;28;20052;-10
2022/09/23 01:41:56;;;;;;;1.27;1.17;;;21.50;44.60;;;;;;5051794;28;20414;-10
2022/09/23 01:44:43;;;;;;;1.15;1.10;;;21.50;44.50;;;;;;5052399;28;20080;-10
2022/09/23 01:47:29;;;;;;;0.85;0.85;;;21.50;44.60;;;;;;5051514;28;20053;-10
2022/09/23 01:50:55;;;;;;;1.23;1.10;;;21.50;44.60;;;;;;5051504;28;20542;-10
2022/09/23 01:53:00;;;;;;;0.88;0.80;;;21.50;44.60;;;;;;5051311;28;20060;-10
2022/09/23 01:55:30;;;;;;;2.65;1.13;;;21.50;44.60;;;;;;5051509;28;20053;-10
2022/09/23 01:58:02;;;;;;;1.35;1.10;;;21.50;44.50;;;;;;5051210;28;20136;-10
2022/09/23 02:00:33;;;;;;;0.85;0.85;;;21.50;44.60;;;;;;5033036;28;20169;-10
2022/09/23 02:03:03;;;;;;;;;;;21.50;44.50;;;;;;5052134;28;20550;-10
2022/09/23 02:05:40;;;;;;;1.20;1.10;;;21.50;44.60;;;;;;5051395;28;19916;-10
2022/09/23 02:08:25;;;;;;;1.27;1.00;;;21.40;44.50;;;;;;5051659;28;20482;-10
2022/09/23 02:11:03;;;;;;;1.15;1.00;;;21.50;44.60;;;;;;5051428;28;20410;-10
2022/09/23 02:13:50;;;;;;;0.80;0.80;;;21.40;44.50;;;;;;5051761;28;20057;-10
2022/09/23 02:16:32;;;;;;;1.05;0.95;;;21.50;44.60;;;;;;5051295;28;20064;-10
2022/09/23 02:19:07;;;;;;;1.08;0.90;;;21.50;44.60;;;;;;5051619;28;20080;-10
2022/09/23 02:21:37;;;;;;;1.38;1.20;;;21.50;44.60;;;;;;5051363;28;20051;-10
2022/09/23 02:24:19;;;;;;;1.17;1.08;;;21.40;44.50;;;;;;5051213;28;20430;-10
2022/09/23 02:27:07;;;;;;;1.10;1.00;;;21.50;44.60;;;;;;5051208;28;20490;-10
2022/09/23 02:29:47;;;;;;;1.20;0.93;;;21.40;44.50;;;;;;5050801;28;20144;-10
2022/09/23 02:32:21;;;;;;;1.40;1.25;;;21.40;45.10;;;;;;5051132;28;20053;-10
2022/09/23 02:35:17;;;;;;;1.33;1.23;;;21.40;44.50;;;;;;5051224;28;20140;-10
2022/09/23 02:38:17;;;;;;;1.13;1.00;;;21.40;44.50;;;;;;5050817;28;20057;-10
2022/09/23 02:41:25;;;;;;;1.33;1.15;;;21.40;44.60;;;;;;5062031;28;20132;-10
2022/09/23 02:43:59;;;;;;;0.93;0.93;;;21.40;44.50;;;;;;5071897;28;20068;-10
2022/09/23 02:46:26;;;;;;;1.38;1.27;;;21.40;44.50;;;;;;5072354;28;20055;-10
2022/09/23 02:48:59;;;;;;;1.25;1.15;;;21.50;44.50;;;;;;5041819;28;20053;-10
2022/09/23 02:51:27;;;;;;;1.20;1.10;;;21.40;44.50;;;;;;5051271;28;20057;-10
2022/09/23 02:53:57;;;;;;;1.15;1.05;;;21.40;44.60;;;;;;5050935;28;20049;-10
2022/09/23 02:56:23;;;;;;;1.17;1.08;;;21.40;44.50;;;;;;5051131;28;20129;-10
2022/09/23 02:58:51;;;;;;;1.02;1.00;;;21.40;44.50;;;;;;5051121;28;20186;-10
2022/09/23 03:01:51;;;;;;;1.23;0.93;;;21.40;44.50;;;;;;5051019;28;20139;-10
2022/09/23 03:04:46;;;;;;;1.10;1.02;;;21.50;44.50;;;;;;5050893;28;20078;-10
2022/09/23 03:07:19;;;;;;;0.70;0.70;;;21.50;44.50;;;;;;5050776;28;20482;-10
2022/09/23 03:09:54;;;;;;;1.30;0.93;;;21.50;44.40;;;;;;5050707;28;20402;-10
2022/09/23 03:12:51;;;;;;;1.15;1.05;;;21.50;44.30;;;;;;5051060;28;20432;-10
2022/09/23 03:15:46;;;;;;;1.00;1.00;;;21.50;44.20;;;;;;5050673;28;20098;-10
2022/09/23 03:18:30;;;;;;;0.80;0.80;;;21.50;44.10;;;;;;5050699;28;20052;-11
2022/09/23 03:21:02;;;;;;;1.13;1.02;;;21.60;44.10;;;;;;5050522;28;20422;-11
2022/09/23 03:23:35;;;;;;;0.70;0.70;;;21.60;44.00;;;;;;5050894;28;20065;-11
2022/09/23 03:26:10;;;;;;;1.63;1.20;;;21.60;44.00;;;;;;5050706;28;20435;-11
2022/09/23 03:28:37;;;;;;;2.67;1.10;;;21.60;44.00;;;;;;5050589;28;20410;-11
2022/09/23 03:31:03;;;;;;;1.33;1.00;;;21.60;44.00;;;;;;5050748;28;20049;-11
2022/09/23 03:33:30;;;;;;;1.10;1.00;;;21.70;44.00;;;;;;5050437;28;20052;-11
2022/09/23 03:39:02;;;;;;;0.93;0.93;;;21.60;43.90;;;;;;5050232;28;20101;-11
2022/09/23 03:41:40;;;;;;;1.20;1.10;;;21.60;43.90;;;;;;5050347;28;20048;-11
2022/09/23 03:44:07;;;;;;;1.02;0.93;;;21.60;43.90;;;;;;5050271;28;20057;-11
2022/09/23 03:46:34;;;;;;;1.10;1.00;;;21.60;43.90;;;;;;5050560;28;20056;-11
2022/09/23 03:49:23;;;;;;;1.35;1.00;;;21.60;43.90;;;;;;5049532;28;20065;-11
2022/09/23 03:51:48;;;;;;;1.17;1.05;;;21.60;43.90;;;;;;5050209;28;20044;-11
2022/09/23 03:54:14;;;;;;;1.60;1.08;;;21.70;43.90;;;;;;5050788;28;20057;-11
2022/09/23 03:56:40;;;;;;;0.90;0.90;;;21.70;44.00;;;;;;5050236;28;20483;-11
2022/09/23 03:59:06;;;;;;;1.10;1.00;;;21.60;44.00;;;;;;5050135;28;20403;-11
2022/09/23 04:01:31;;;;;;;0.90;0.90;;;21.60;44.00;;;;;;5050087;28;20135;-10
2022/09/23 04:03:57;;;;;;;1.40;1.15;;;21.60;44.00;;;;;;5050085;28;20052;-11
2022/09/23 04:06:23;;;;;;;1.08;0.98;;;21.50;44.00;;;;;;5050140;28;20057;-11
2022/09/23 04:08:48;;;;;;;1.38;0.90;;;21.60;44.10;;;;;;5050111;28;20077;-11
2022/09/23 04:11:14;;;;;;;1.42;1.10;;;21.50;44.10;;;;;;5050133;28;20398;-11
2022/09/23 04:13:39;;;;;;;0.85;0.85;;;21.50;44.10;;;;;;5050001;28;20101;-11
2022/09/23 04:16:05;;;;;;;1.35;1.25;;;21.50;44.10;;;;;;5049862;28;20051;-11
2022/09/23 04:18:31;;;;;;;1.30;1.15;;;21.60;44.20;;;;;;5050277;28;20135;-10
2022/09/23 04:20:58;;;;;;;1.05;0.90;;;21.50;44.10;;;;;;5049884;28;20055;-11
2022/09/23 04:23:26;;;;;;;1.10;1.00;;;21.50;44.10;;;;;;5049854;28;20517;-11
2022/09/23 04:25:53;;;;;;;1.40;1.10;;;21.50;44.20;;;;;;5049740;28;20524;-11
2022/09/23 04:28:19;;;;;;;1.45;0.90;;;21.50;44.20;;;;;;5050076;28;20049;-11
2022/09/23 04:30:45;;;;;;;0.70;0.70;;;21.50;44.20;;;;;;5049365;28;20140;-11
2022/09/23 04:33:11;;;;;;;1.27;1.05;;;21.50;44.20;;;;;;5050221;28;20101;-11
2022/09/23 04:35:37;;;;;;;0.75;0.70;;;21.50;44.20;;;;;;5049345;28;20101;-11
2022/09/23 04:38:04;;;;;;;1.00;1.00;;;21.50;44.20;;;;;;5049599;28;20053;-11
2022/09/23 04:40:30;;;;;;;1.00;1.00;;;21.40;44.20;;;;;;5049294;28;20080;-11
2022/09/23 04:42:56;;;;;;;1.00;0.90;;;21.40;44.20;;;;;;5049506;28;20478;-11
2022/09/23 04:45:22;;;;;;;1.20;1.10;;;21.50;44.30;;;;;;5049546;28;20493;-11
2022/09/23 04:47:47;;;;;;;1.00;1.00;;;21.50;44.30;;;;;;5049350;28;20069;-10
2022/09/23 04:50:13;;;;;;;0.90;0.90;;;21.50;44.30;;;;;;5049176;28;20053;-11
2022/09/23 04:52:39;;;;;;;1.05;0.95;;;21.40;44.30;;;;;;5049405;28;20049;-11
2022/09/23 04:55:05;;;;;;;1.30;0.90;;;21.50;44.40;;;;;;5049336;28;20064;-11
2022/09/23 04:57:32;;;;;;;1.52;1.10;;;21.40;44.30;;;;;;5049195;28;20045;-11
2022/09/23 04:59:58;;;;;;;0.90;0.90;;;21.40;44.30;;;;;;5051190;28;20061;-11
2022/09/23 05:02:24;;;;;;;0.70;0.70;;;21.40;44.30;;;;;;5052474;28;20080;-11
2022/09/23 05:04:49;;;;;;;1.08;0.98;;;21.40;44.30;;;;;;5052251;28;20449;-11
2022/09/23 05:07:17;;;;;;;1.30;1.15;;;21.40;44.30;;;;;;5052192;28;20051;-11
2022/09/23 05:09:42;;;;;;;1.13;1.02;;;21.40;44.30;;;;;;5052069;28;21465;-11
2022/09/23 05:12:08;;;;;;;0.90;0.90;;;21.40;44.30;;;;;;5052082;28;20088;-11
2022/09/23 05:14:34;;;;;;;0.95;0.95;;;21.40;44.40;;;;;;5052076;28;20053;-11
2022/09/23 05:16:59;;;;;;;0.90;0.90;;;21.40;44.30;;;;;;5052154;28;20052;-11
2022/09/23 05:19:25;;;;;;;1.10;0.82;;;21.40;44.40;;;;;;5052087;28;20135;-11
2022/09/23 05:21:50;;;;;;;1.15;1.05;;;21.40;44.30;;;;;;5052567;28;20114;-11
2022/09/23 05:24:16;;;;;;;0.90;0.90;;;21.40;44.30;;;;;;5051930;28;20053;-11
2022/09/23 05:26:42;;;;;;;0.82;0.80;;;21.40;44.20;;;;;;5051973;28;20049;-11
2022/09/23 05:29:07;;;;;;;1.20;1.10;;;21.40;44.20;;;;;;5119434;27;20054;-11
2022/09/23 05:31:34;;;;;;;1.10;1.00;;;21.50;44.20;;;;;;5051917;28;20041;-11
2022/09/23 05:34:03;;;;;;;1.02;0.90;;;21.40;44.10;;;;;;5052068;28;20057;-11
2022/09/23 05:36:31;;;;;;;1.73;1.13;;;21.50;44.10;;;;;;5051761;28;20514;-11
2022/09/23 05:38:57;;;;;;;1.23;0.90;;;21.50;44.10;;;;;;5052320;28;20052;-11
2022/09/23 05:41:24;;;;;;;1.15;1.05;;;21.50;44.10;;;;;;5051780;28;20558;-11
2022/09/23 05:43:51;;;;;;;0.85;0.80;;;21.50;44.00;;;;;;5051563;28;20501;-10
2022/09/23 05:46:19;;;;;;;1.05;0.88;;;21.60;44.00;;;;;;5051839;28;20065;-10
2022/09/23 05:48:46;;;;;;;1.05;0.95;;;21.60;44.00;;;;;;5033522;28;20049;-11
2022/09/23 05:51:20;;;;;;;0.90;0.80;;;21.60;44.00;;;;;;5051873;28;20057;-10
2022/09/23 05:53:46;;;;;;;0.90;0.90;;;21.60;43.90;;;;;;5051918;28;20141;-10
2022/09/23 05:56:14;;;;;;;1.10;1.00;;;21.60;43.90;;;;;;5051473;28;20053;-10
2022/09/23 05:58:39;;;;;;;1.20;1.00;;;21.60;43.80;;;;;;5051472;28;20053;-10
2022/09/23 06:01:10;;;;;;;0.95;0.95;;;21.60;43.80;;;;;;5051468;28;20060;-10
2022/09/23 06:03:35;;;;;;;0.60;0.60;;;21.60;43.80;;;;;;5051815;28;20056;-10
2022/09/23 06:06:01;;;;;;;0.80;0.80;;;21.60;43.80;;;;;;5051113;28;20057;-10
2022/09/23 06:08:27;;;;;;;1.20;1.10;;;21.70;43.80;;;;;;5051673;28;20045;-10
2022/09/23 06:10:53;;;;;;;1.30;1.00;;;21.60;43.80;;;;;;5050642;28;20051;-10
2022/09/23 06:13:19;;;;;;;1.30;1.20;;;21.60;43.80;;;;;;5051106;28;21433;-10
2022/09/23 06:15:44;;;;;;;1.30;1.00;;;21.60;43.80;;;;;;5050864;28;20049;-10
2022/09/23 06:18:11;;;;;;;0.93;0.90;;;21.60;43.80;;;;;;5051068;28;20057;-11
2022/09/23 06:20:37;;;;;;;1.05;0.88;;;21.60;43.80;;;;;;5051024;28;20085;-12
2022/09/23 06:23:12;;;;;;;2.28;1.00;;;21.60;43.80;;;;;;5051209;28;20105;-9
2022/09/23 06:25:37;;;;;;;1.17;1.00;;;21.60;43.80;;;;;;5050795;28;20069;-10
2022/09/23 06:28:03;;;;;;;1.17;1.08;;;21.60;43.80;;;;;;5051079;28;20482;-10
2022/09/23 06:30:29;;;;;;;0.80;0.80;;;21.60;43.80;;;;;;5051007;28;20056;-11
2022/09/23 06:32:56;;;;;;;0.90;0.90;;;21.60;43.80;;;;;;5049499;28;20057;-10
2022/09/23 06:35:25;;;;;;;1.10;1.00;;;21.60;43.80;;;;;;5051002;28;20139;-11
2022/09/23 06:37:51;;;;;;;0.95;0.82;;;21.60;43.80;;;;;;5051130;28;20052;-10
2022/09/23 06:40:17;;;;;;;2.45;1.10;;;21.60;43.80;;;;;;5050828;28;20049;-10
2022/09/23 06:42:43;;;;;;;1.10;1.00;;;21.60;43.80;;;;;;5050840;28;20056;-10
2022/09/23 06:45:14;;;;;;;1.33;0.90;;;21.70;44.40;;;;;;5050877;28;20068;-10
2022/09/23 06:47:43;;;;;;;1.15;1.00;;;21.70;43.80;;;;;;5050890;28;20049;-10
2022/09/23 06:50:11;;;;;;;1.33;0.98;;;21.70;43.70;;;;;;5050763;28;20053;-10
2022/09/23 06:52:37;;;;;;;0.82;0.80;;;21.70;43.70;;;;;;5051070;28;20106;-10
2022/09/23 06:55:03;;;;;;;0.70;0.70;;;21.70;43.60;;;;;;5050754;28;20106;-10
2022/09/23 06:57:30;;;;;;;1.30;0.80;;;21.70;43.60;;;;;;5050856;28;20469;-11
2022/09/23 06:59:58;;;;;;;1.00;0.90;;;21.70;43.60;;;;;;5050764;28;20129;-10
2022/09/23 07:02:24;;;;;;;1.55;1.00;;;21.70;43.60;;;;;;5050751;28;20067;-10
2022/09/23 07:04:50;;;;;;;1.35;0.93;;;21.80;43.60;;;;;;5050611;28;20049;-10
2022/09/23 07:07:17;;;;;;;0.88;0.88;;;21.80;43.50;;;;;;5050664;28;20098;-10
2022/09/23 07:09:44;;;;;;;1.40;1.17;;;21.90;43.40;;;;;;5050372;28;20143;-10
2022/09/23 07:12:09;;;;;;;0.90;0.90;;;21.90;43.30;;;;;;5050427;28;20053;-10
2022/09/23 07:14:35;;;;;;;1.10;1.00;;;22.00;43.20;;;;;;5050766;28;20057;-10
2022/09/23 07:17:02;;;;;;;1.30;0.80;;;22.10;43.00;;;;;;5049201;28;20045;-10
2022/09/23 07:19:28;;;;;;;0.80;0.80;;;22.20;42.90;;;;;;5050137;28;20091;-9
2022/09/23 07:21:54;;;;;;;1.15;1.05;;;22.20;42.70;;;;;;5049877;28;20057;-10
2022/09/23 07:24:19;;;;;;;1.20;1.10;;;22.30;42.60;;;;;;5049557;28;20104;-10
2022/09/23 07:26:45;;;;;;;0.90;0.90;;;22.30;42.50;;;;;;5050458;28;20671;-10
2022/09/23 07:29:12;;;;;;;1.20;1.10;;;22.40;42.40;;;;;;5050155;28;20139;-10
2022/09/23 07:31:38;;;;;;;1.10;1.00;;;22.40;42.30;;;;;;5050201;28;20487;-10
2022/09/23 07:34:05;;;;;;;3.05;1.20;;;22.40;42.20;;;;;;5050102;28;20091;-10
2022/09/23 07:36:31;;;;;;;3.17;1.20;;;22.50;42.20;;;;;;5050588;28;20132;-10
2022/09/23 07:39:02;;;;;;;2.28;1.20;;;22.50;42.20;;;;;;5049995;28;20052;-10
2022/09/23 07:41:29;;;;;;;1.67;1.25;;;22.40;42.20;;;;;;5050634;28;20124;-10
2022/09/23 07:43:57;;;;;;;1.45;1.30;;;22.50;42.20;;;;;;5050280;28;20131;-11
2022/09/23 07:46:24;;;;;;;1.15;0.93;;;22.60;42.00;;;;;;5050360;28;20057;-11
2022/09/23 07:48:51;;;;;;;1.00;1.00;;;22.60;41.90;;;;;;5049824;28;20077;-11
2022/09/23 07:51:26;;;;;;;1.63;1.20;;;22.60;42.00;;;;;;5050294;28;20052;-11
2022/09/23 07:53:54;;;;;;;1.73;1.20;;;22.60;41.90;;;;;;5050318;28;20428;-11
2022/09/23 07:56:23;;;;;;;1.17;1.08;;;22.60;41.80;;;;;;5049925;28;20061;-11
2022/09/23 07:58:58;;;;;;;2.63;1.42;;;22.60;41.90;;;;;;5049789;28;20121;-10
2022/09/23 08:01:30;;;;;;;1.38;1.27;;;22.60;41.90;;;;;;5049929;27;20068;-11
2022/09/23 08:03:57;;;;;;;1.23;1.13;;;22.60;41.90;;;;;;5049962;28;20057;-11
2022/09/23 08:06:24;;;;;;;2.47;1.02;;;22.60;42.00;;;;;;5049772;28;20055;-11
2022/09/23 08:08:50;;;;;;;1.42;1.30;;;22.50;42.10;;;;;;5049633;28;20557;-11
2022/09/23 08:11:16;;;;;;;1.35;1.20;;;22.50;42.20;;;;;;5049810;28;20078;-11
2022/09/23 08:13:41;;;;;;;1.58;1.30;;;22.50;42.10;;;;;;5050044;28;20064;-11
2022/09/23 08:16:08;;;;;;;1.45;1.20;;;22.50;42.70;;;;;;5049815;28;20076;-11
2022/09/23 08:18:33;;;;;;;1.38;1.13;;;22.40;42.20;;;;;;5049573;28;20497;-11
2022/09/23 08:20:59;;;;;;;1.30;1.20;;;22.40;42.30;;;;;;5049601;28;20053;-11
2022/09/23 08:23:26;;;;;;;1.27;1.17;;;22.40;42.30;;;;;;5050017;28;20140;-11
2022/09/23 08:26:00;;;;;;;3.42;1.50;;;22.40;42.30;;;;;;5049485;28;20087;-11
2022/09/23 08:28:27;;;;;;;1.40;1.30;;;22.40;42.80;;;;;;5049680;28;20057;-11
2022/09/23 08:30:54;;;;;;;2.08;1.20;;;22.40;42.30;;;;;;5048377;28;20057;-11
2022/09/23 08:33:20;;;;;;;1.25;1.15;;;22.40;42.30;;;;;;5049123;28;20045;-11
2022/09/23 08:35:45;;;;;;;1.42;1.17;;;22.40;42.40;;;;;;5049444;28;20052;-11
2022/09/23 08:38:11;;;;;;;1.90;1.55;;;22.30;42.40;;;;;;5049369;28;20060;-11
2022/09/23 08:40:40;;;;;;;2.03;1.45;;;22.30;42.40;;;;;;5049251;28;20049;-11
2022/09/23 08:43:13;;;;;;;1.40;1.30;;;22.30;42.50;;;;;;5049587;28;20056;-11
2022/09/23 08:45:41;;;;;;;1.35;1.20;;;22.30;42.60;;;;;;5049085;28;20554;-11
2022/09/23 08:48:11;;;;;;;1.92;1.30;;;22.30;42.50;;;;;;5048991;28;20045;-11
2022/09/23 08:50:47;;;;;;;1.30;1.10;;;22.30;42.50;;;;;;5048875;28;20049;-11
2022/09/23 08:53:36;;;;;;;2.03;1.40;;;22.30;42.60;;;;;;5049442;28;20140;-11
2022/09/23 08:56:16;;;;;;;1.77;1.27;;;22.30;42.70;;;;;;5049155;28;20098;-11
2022/09/23 08:59:07;;;;;;;1.73;1.42;;;22.20;42.70;;;;;;5048731;28;20080;-11
2022/09/23 09:01:59;;;;;;;1.50;1.30;;;22.20;42.70;;;;;;5049018;28;20049;-11
2022/09/23 09:04:34;;;;;;;1.38;1.27;;;22.20;42.70;;;;;;5049285;28;20052;-11
2022/09/23 09:07:06;;;;;;;1.45;1.30;;;22.20;42.60;;;;;;5049099;28;20431;-11
2022/09/23 09:09:38;;;;;;;1.65;1.40;;;22.20;42.70;;;;;;5048940;28;20483;-11
2022/09/23 09:12:14;;;;;;;1.20;1.10;;;22.20;42.70;;;;;;5049198;28;20080;-11
2022/09/23 09:14:59;;;;;;;2.95;1.63;;;22.20;42.80;;;;;;5048806;28;20053;-11
2022/09/23 09:17:38;;;;;;;1.52;1.40;;;22.20;42.80;;;;;;5049036;28;20532;-11
2022/09/23 09:20:34;;;;;;;1.75;1.40;;;22.20;43.30;;;;;;5048959;28;20049;-11
2022/09/23 09:23:14;;;;;;;2.35;1.45;;;22.20;42.80;;;;;;5048820;28;20060;-11
2022/09/23 09:26:00;;;;;;;2.17;1.20;;;22.20;42.80;;;;;;5049095;28;20098;-11
2022/09/23 09:28:40;;;;;;;1.75;1.40;;;22.20;42.80;;;;;;5048518;28;20412;-11
2022/09/23 09:31:28;;;;;;;1.85;1.40;;;22.20;42.80;;;;;;5048431;28;20105;-11
2022/09/23 09:34:08;;;;;;;1.55;1.30;;;22.10;42.80;;;;;;5049120;28;20117;-11
2022/09/23 09:36:57;;;;;;;2.60;1.48;;;22.10;42.90;;;;;;5048383;28;20168;-11
2022/09/23 09:39:22;;;;;;;1.50;1.38;;;22.10;42.90;;;;;;5048365;28;20178;-11
2022/09/23 09:41:52;;;;;;;2.03;1.48;;;22.10;42.90;;;;;;5048650;28;20525;-11
2022/09/23 09:44:37;;;;;;;1.80;1.40;;;22.10;42.90;;;;;;5048280;28;20101;-11
2022/09/23 09:47:27;;;;;;;1.75;1.30;;;22.10;42.90;;;;;;5050689;28;20422;-11
2022/09/23 09:50:12;;;;;;;1.75;1.50;;;22.10;42.90;;;;;;5051436;28;20056;-11
2022/09/23 09:52:41;;;;;;;1.73;1.42;;;22.10;43.00;;;;;;5051755;28;20474;-11
2022/09/23 09:55:13;;;;;;;2.83;1.75;;;22.00;43.00;;;;;;5051887;28;20065;-11
2022/09/23 09:57:54;;;;;;;1.85;1.42;;;22.00;42.90;;;;;;5051150;28;20052;-11
2022/09/23 10:00:26;;;;;;;1.42;1.33;;;22.10;43.00;;;;;;5051604;28;20485;-11
2022/09/23 10:03:21;;;;;;;1.90;1.48;;;22.10;43.00;;;;;;5051694;28;20056;-11
2022/09/23 10:05:51;;;;;;;2.67;1.77;;;22.00;43.00;;;;;;5051289;28;20068;-11
2022/09/23 10:08:36;;;;;;;3.15;1.50;;;22.00;43.00;;;;;;5051450;28;20045;-11
2022/09/23 10:11:15;;;;;;;1.40;1.23;;;22.10;43.00;;;;;;5050941;28;20474;-11
2022/09/23 10:14:00;;;;;;;1.63;1.52;;;22.10;43.00;;;;;;5032942;28;20056;-11
2022/09/23 10:16:30;;;;;;;1.60;1.50;;;22.10;42.90;;;;;;5050750;28;20566;-12
2022/09/23 10:19:10;;;;;;;1.60;1.40;;;22.10;42.80;;;;;;5051210;28;20105;-11
2022/09/23 10:21:37;;;;;;;1.48;1.38;;;22.20;42.90;;;;;;5050572;28;20109;-11
2022/09/23 10:24:05;;;;;;;1.60;1.50;;;22.10;42.80;;;;;;5050953;28;20057;-11
2022/09/23 10:26:32;;;;;;;3.10;1.55;;;22.10;42.80;;;;;;5050671;28;20144;-11
2022/09/23 10:29:18;;;;;;;1.50;1.40;;;22.10;42.80;;;;;;5051122;28;20048;-11
2022/09/23 10:31:44;;;;;;;2.15;1.55;;;22.20;42.80;;;;;;5050848;28;20193;-10
2022/09/23 10:34:26;;;;;;;2.35;1.38;;;22.20;42.80;;;;;;5050623;28;20053;-11
2022/09/23 10:37:04;;;;;;;1.20;1.10;;;22.20;42.80;;;;;;5050662;28;20492;-11
2022/09/23 10:48:26;;;;;;;1.42;1.33;;;22.20;42.70;;;;;;5051059;28;20083;-11
2022/09/23 10:50:54;;;;;;;2.42;1.65;;;22.20;42.60;;;;;;5056504;28;20507;-11
2022/09/23 10:54:07;;;;;;;1.65;1.45;;;22.20;42.60;;;;;;5050532;28;20045;-10
2022/09/23 10:56:41;;;;;;;2.08;1.88;;;22.30;42.60;;;;;;5059616;28;20498;-11
2022/09/23 10:59:20;;;;;;;1.52;1.40;;;22.30;42.60;;;;;;5050306;28;20197;-11
2022/09/23 11:02:03;;;;;;;1.40;1.30;;;22.30;42.60;;;;;;5050351;28;20057;-11
2022/09/23 11:04:56;;;;;;;1.67;1.52;;;22.30;42.60;;;;;;5050259;28;20454;-11
2022/09/23 11:07:52;;;;;;;2.35;1.55;;;22.30;42.60;;;;;;5050569;28;20063;-11
2022/09/23 11:10:41;;;;;;;2.22;1.35;;;22.30;42.50;;;;;;5050029;28;20045;-10
2022/09/23 11:13:52;;;;;;;2.40;1.70;;;22.30;42.50;;;;;;5050565;28;20131;-11
2022/09/23 11:16:40;;;;;;;2.10;1.50;;;22.30;42.50;;;;;;5070942;28;20058;-11
2022/09/23 11:19:44;;;;;;;1.30;1.20;;;22.30;43.00;;;;;;5050330;28;20072;-11
2022/09/23 11:22:39;;;;;;;1.80;1.40;;;22.30;42.50;;;;;;5050485;28;20041;-11
2022/09/23 11:25:15;;;;;;;1.70;1.40;;;22.30;42.50;;;;;;5049959;28;20113;-11
2022/09/23 11:28:09;;;;;;;2.47;1.60;;;22.30;42.50;;;;;;5050610;28;20048;-11
2022/09/23 11:31:08;;;;;;;1.30;1.20;;;22.40;42.50;;;;;;5049874;28;20082;-11
2022/09/23 11:33:45;;;;;;;1.65;1.20;;;22.30;42.40;;;;;;5050323;28;20049;-12
2022/09/23 11:36:23;;;;;;;1.40;1.20;;;22.30;42.50;;;;;;5050384;28;20483;-9
2022/09/23 11:38:52;;;;;;;2.17;1.73;;;22.30;42.50;;;;;;5049996;28;20382;-9
2022/09/23 11:41:28;;;;;;;1.65;1.42;;;22.30;42.50;;;;;;5050098;28;20060;-10
2022/09/23 11:44:10;;;;;;;2.40;1.65;;;22.30;42.50;;;;;;5050161;28;20458;-10
2022/09/23 11:47:11;;;;;;;2.00;1.60;;;22.30;42.50;;;;;;5050052;28;20103;-10
2022/09/23 11:50:01;;;;;;;1.50;1.40;;;22.30;42.50;;;;;;5052675;28;20053;-11
2022/09/23 11:52:35;;;;;;;2.25;1.60;;;22.30;42.50;;;;;;5049729;28;20057;-11
2022/09/23 11:55:25;;;;;;;1.75;1.50;;;22.30;42.50;;;;;;5050110;28;20041;-11
2022/09/23 11:57:58;;;;;;;1.70;1.48;;;22.30;42.50;;;;;;5049580;28;20052;-11
2022/09/23 12:00:31;;;;;;;1.92;1.48;;;22.30;42.50;;;;;;5049832;28;20086;-11
2022/09/23 12:02:57;;;;;;;1.50;1.40;;;22.30;42.50;;;;;;5049969;28;20089;-12
2022/09/23 12:05:26;;;;;;;1.75;1.60;;;22.30;43.00;;;;;;5049737;28;20049;-12
2022/09/23 12:08:09;;;;;;;1.95;1.60;;;22.30;42.50;;;;;;5049513;28;20060;-12
2022/09/23 12:10:52;;;;;;;1.65;1.55;;;22.30;42.60;;;;;;5049376;28;20147;-12
2022/09/23 12:13:39;;;;;;;2.20;1.50;;;22.30;42.60;;;;;;5049640;28;20113;-12
2022/09/23 12:16:24;;;;;;;2.85;1.70;;;22.30;42.50;;;;;;5049414;28;20060;-12
2022/09/23 12:19:12;;;;;;;1.50;1.38;;;22.30;42.60;;;;;;5049555;28;20049;-12
2022/09/23 12:21:55;;;;;;;1.63;1.42;;;22.30;42.60;;;;;;5049268;28;20402;-13
2022/09/23 12:24:42;;;;;;;1.77;1.30;;;22.30;42.60;;;;;;5048345;28;20061;-13
2022/09/23 12:27:21;;;;;;;1.70;1.30;;;22.30;42.60;;;;;;5049482;28;20136;-12
2022/09/23 12:29:53;;;;;;;1.75;1.40;;;22.30;42.50;;;;;;5049460;28;20053;-12
2022/09/23 12:32:19;;;;;;;1.48;1.27;;;22.30;42.50;;;;;;5049693;28;20063;-12
2022/09/23 12:34:48;;;;;;;1.55;1.45;;;22.30;42.50;;;;;;5049802;28;20056;-11
2022/09/23 12:37:33;;;;;;;1.67;1.58;;;22.30;42.50;;;;;;5049120;28;20107;-12
2022/09/23 12:40:15;;;;;;;1.67;1.30;;;22.30;42.50;;;;;;5048986;28;20056;-12
2022/09/23 12:42:45;;;;;;;2.95;1.40;;;22.40;42.50;;;;;;5049188;28;20394;-11
2022/09/23 12:45:33;;;;;;;2.03;1.42;;;22.30;42.40;;;;;;5048884;28;20061;-12
2022/09/23 12:48:03;;;;;;;1.80;1.48;;;22.40;42.50;;;;;;5049050;28;20404;-12
2022/09/23 12:50:53;;;;;;;1.63;1.50;;;22.30;42.50;;;;;;5048446;28;20509;-9
2022/09/23 12:53:53;;;;;;;2.20;1.50;;;22.30;42.50;;;;;;5049065;28;20045;-9
2022/09/23 12:56:46;;;;;;;1.77;1.45;;;22.30;42.50;;;;;;5052203;28;20299;-10
2022/09/23 12:59:15;;;;;;;1.50;1.40;;;22.30;42.50;;;;;;5051580;28;20056;-10
2022/09/23 13:01:42;;;;;;;1.88;1.20;;;22.30;42.50;;;;;;5048735;28;20076;-10
2022/09/23 13:07:32;;;;;;;1.67;1.40;;;22.30;42.50;;;;;;5048821;28;20132;-10
2022/09/23 13:10:13;;;;;;;1.63;1.23;;;22.30;42.50;;;;;;5048289;28;20113;-10
2022/09/23 13:12:42;;;;;;;1.73;1.38;;;22.30;42.50;;;;;;5048787;28;20053;-10
2022/09/23 13:15:21;;;;;;;1.48;1.27;;;22.40;42.50;;;;;;5048751;28;20167;-10
2022/09/23 13:17:47;;;;;;;1.77;1.40;;;22.30;42.50;;;;;;5048585;28;20129;-10
2022/09/23 13:20:19;;;;;;;2.90;1.40;;;22.30;42.50;;;;;;5048622;28;20056;-10
2022/09/23 13:22:47;;;;;;;1.73;1.20;;;22.30;42.50;;;;;;5051829;28;20053;-10
2022/09/23 13:25:23;;;;;;;1.58;1.13;;;22.30;42.50;;;;;;5051717;28;20490;-11
2022/09/23 13:27:53;;;;;;;2.05;1.38;;;22.30;42.60;;;;;;5051970;28;20052;-10
2022/09/23 13:30:22;;;;;;;1.13;1.03;;;22.30;42.50;;;;;;5051563;28;20447;-10
2022/09/23 13:33:01;;;;;;;1.70;1.27;;;22.30;43.10;;;;;;5033670;28;20049;-10
2022/09/23 13:35:36;;;;;;;1.40;1.25;;;22.30;42.60;;;;;;5051472;28;20087;-10
2022/09/23 13:38:30;;;;;;;1.52;1.40;;;22.30;42.50;;;;;;5051640;28;20045;-10